sensor_id;sensor_type;location;lat;lon;timestamp;temperature;humidity
43651;DHT22;29247;50.944;5.382;2024-02-04T00:00:47;20.90;60.70
43651;DHT22;29247;50.944;5.382;2024-02-04T00:03:16;20.90;60.70
43651;DHT22;29247;50.944;5.382;2024-02-04T00:05:42;20.90;60.70
43651;DHT22;29247;50.944;5.382;2024-02-04T00:08:07;20.90;60.80
43651;DHT22;29247;50.944;5.382;2024-02-04T00:10:33;20.90;60.80
43651;DHT22;29247;50.944;5.382;2024-02-04T00:13:02;20.90;60.90
43651;DHT22;29247;50.944;5.382;2024-02-04T00:15:29;20.90;60.80
43651;DHT22;29247;50.944;5.382;2024-02-04T00:17:54;20.90;60.80
43651;DHT22;29247;50.944;5.382;2024-02-04T00:20:20;20.90;60.90
43651;DHT22;29247;50.944;5.382;2024-02-04T00:22:46;20.80;60.90
43651;DHT22;29247;50.944;5.382;2024-02-04T00:25:12;20.80;60.90
43651;DHT22;29247;50.944;5.382;2024-02-04T00:27:40;20.80;60.90
43651;DHT22;29247;50.944;5.382;2024-02-04T00:30:06;20.80;61.00
43651;DHT22;29247;50.944;5.382;2024-02-04T00:32:32;20.80;61.00
43651;DHT22;29247;50.944;5.382;2024-02-04T00:35:00;20.80;61.00
43651;DHT22;29247;50.944;5.382;2024-02-04T00:37:26;20.80;61.00
43651;DHT22;29247;50.944;5.382;2024-02-04T00:39:52;20.80;61.10
43651;DHT22;29247;50.944;5.382;2024-02-04T00:42:18;20.80;61.10
43651;DHT22;29247;50.944;5.382;2024-02-04T00:44:43;20.80;61.20
43651;DHT22;29247;50.944;5.382;2024-02-04T00:47:09;20.80;61.20
43651;DHT22;29247;50.944;5.382;2024-02-04T00:49:35;20.70;61.10
43651;DHT22;29247;50.944;5.382;2024-02-04T00:52:03;20.80;61.30
43651;DHT22;29247;50.944;5.382;2024-02-04T00:54:29;20.80;61.20
43651;DHT22;29247;50.944;5.382;2024-02-04T00:56:54;20.70;61.20
43651;DHT22;29247;50.944;5.382;2024-02-04T00:59:20;20.80;61.30
43651;DHT22;29247;50.944;5.382;2024-02-04T01:01:46;20.70;62.10
43651;DHT22;29247;50.944;5.382;2024-02-04T01:04:14;20.70;61.30
43651;DHT22;29247;50.944;5.382;2024-02-04T01:06:39;20.70;61.30
43651;DHT22;29247;50.944;5.382;2024-02-04T01:09:07;20.70;61.40
43651;DHT22;29247;50.944;5.382;2024-02-04T01:11:35;20.70;61.40
43651;DHT22;29247;50.944;5.382;2024-02-04T01:14:01;20.70;61.50
43651;DHT22;29247;50.944;5.382;2024-02-04T01:16:26;20.70;61.50
43651;DHT22;29247;50.944;5.382;2024-02-04T01:18:52;20.70;61.50
43651;DHT22;29247;50.944;5.382;2024-02-04T01:21:18;20.70;61.60
43651;DHT22;29247;50.944;5.382;2024-02-04T01:23:43;20.60;61.60
43651;DHT22;29247;50.944;5.382;2024-02-04T01:26:09;20.60;61.60
43651;DHT22;29247;50.944;5.382;2024-02-04T01:28:34;20.60;61.70
43651;DHT22;29247;50.944;5.382;2024-02-04T01:31:00;20.60;61.70
43651;DHT22;29247;50.944;5.382;2024-02-04T01:33:26;20.60;61.70
43651;DHT22;29247;50.944;5.382;2024-02-04T01:35:54;20.60;61.80
43651;DHT22;29247;50.944;5.382;2024-02-04T01:38:20;20.60;61.80
43651;DHT22;29247;50.944;5.382;2024-02-04T01:40:46;20.60;61.80
43651;DHT22;29247;50.944;5.382;2024-02-04T01:43:18;20.60;61.80
43651;DHT22;29247;50.944;5.382;2024-02-04T01:45:43;20.60;61.80
43651;DHT22;29247;50.944;5.382;2024-02-04T01:48:11;20.60;61.80
43651;DHT22;29247;50.944;5.382;2024-02-04T01:50:42;20.60;61.90
43651;DHT22;29247;50.944;5.382;2024-02-04T01:53:08;20.60;61.90
43651;DHT22;29247;50.944;5.382;2024-02-04T01:55:34;20.50;62.00
43651;DHT22;29247;50.944;5.382;2024-02-04T01:58:00;20.50;62.00
43651;DHT22;29247;50.944;5.382;2024-02-04T02:00:25;20.50;62.00
43651;DHT22;29247;50.944;5.382;2024-02-04T02:02:55;20.50;62.10
43651;DHT22;29247;50.944;5.382;2024-02-04T02:05:22;20.50;62.10
43651;DHT22;29247;50.944;5.382;2024-02-04T02:07:47;20.50;62.20
43651;DHT22;29247;50.944;5.382;2024-02-04T02:10:20;20.50;62.20
43651;DHT22;29247;50.944;5.382;2024-02-04T02:13:07;20.50;62.20
43651;DHT22;29247;50.944;5.382;2024-02-04T02:15:42;20.50;62.30
43651;DHT22;29247;50.944;5.382;2024-02-04T02:18:29;20.40;62.20
43651;DHT22;29247;50.944;5.382;2024-02-04T02:21:33;20.40;62.20
43651;DHT22;29247;50.944;5.382;2024-02-04T02:26:51;20.40;62.40
43651;DHT22;29247;50.944;5.382;2024-02-04T02:29:18;20.40;62.50
43651;DHT22;29247;50.944;5.382;2024-02-04T02:31:45;20.40;62.50
43651;DHT22;29247;50.944;5.382;2024-02-04T02:34:11;20.40;62.50
43651;DHT22;29247;50.944;5.382;2024-02-04T02:36:45;20.40;62.50
43651;DHT22;29247;50.944;5.382;2024-02-04T02:39:18;20.40;62.60
43651;DHT22;29247;50.944;5.382;2024-02-04T02:41:50;20.40;62.60
43651;DHT22;29247;50.944;5.382;2024-02-04T02:44:19;20.40;62.60
43651;DHT22;29247;50.944;5.382;2024-02-04T02:46:48;20.30;62.60
43651;DHT22;29247;50.944;5.382;2024-02-04T02:49:14;20.30;62.60
43651;DHT22;29247;50.944;5.382;2024-02-04T02:51:39;20.30;62.70
43651;DHT22;29247;50.944;5.382;2024-02-04T02:54:05;20.30;62.80
43651;DHT22;29247;50.944;5.382;2024-02-04T02:56:31;20.30;62.80
43651;DHT22;29247;50.944;5.382;2024-02-04T02:58:57;20.30;62.80
43651;DHT22;29247;50.944;5.382;2024-02-04T03:01:22;20.30;62.90
43651;DHT22;29247;50.944;5.382;2024-02-04T03:03:49;20.30;62.90
43651;DHT22;29247;50.944;5.382;2024-02-04T03:06:15;20.30;62.90
43651;DHT22;29247;50.944;5.382;2024-02-04T03:08:40;20.30;62.90
43651;DHT22;29247;50.944;5.382;2024-02-04T03:11:06;20.30;62.90
43651;DHT22;29247;50.944;5.382;2024-02-04T03:13:31;20.30;63.00
43651;DHT22;29247;50.944;5.382;2024-02-04T03:15:57;20.30;63.00
43651;DHT22;29247;50.944;5.382;2024-02-04T03:18:23;20.30;63.10
43651;DHT22;29247;50.944;5.382;2024-02-04T03:20:48;20.30;63.10
43651;DHT22;29247;50.944;5.382;2024-02-04T03:23:14;20.20;63.10
43651;DHT22;29247;50.944;5.382;2024-02-04T03:25:40;20.20;63.10
43651;DHT22;29247;50.944;5.382;2024-02-04T03:28:08;20.20;63.10
43651;DHT22;29247;50.944;5.382;2024-02-04T03:30:33;20.20;63.10
43651;DHT22;29247;50.944;5.382;2024-02-04T03:33:01;20.20;63.20
43651;DHT22;29247;50.944;5.382;2024-02-04T03:35:27;20.20;63.20
43651;DHT22;29247;50.944;5.382;2024-02-04T03:37:53;20.20;63.20
43651;DHT22;29247;50.944;5.382;2024-02-04T03:40:18;20.20;63.20
43651;DHT22;29247;50.944;5.382;2024-02-04T03:42:49;20.20;63.30
43651;DHT22;29247;50.944;5.382;2024-02-04T03:45:15;20.20;63.30
43651;DHT22;29247;50.944;5.382;2024-02-04T03:47:41;20.20;63.30
43651;DHT22;29247;50.944;5.382;2024-02-04T03:50:06;20.10;63.30
43651;DHT22;29247;50.944;5.382;2024-02-04T03:52:32;20.10;63.30
43651;DHT22;29247;50.944;5.382;2024-02-04T03:54:58;20.10;63.40
43651;DHT22;29247;50.944;5.382;2024-02-04T03:57:24;20.10;63.40
43651;DHT22;29247;50.944;5.382;2024-02-04T03:59:50;20.10;63.40
43651;DHT22;29247;50.944;5.382;2024-02-04T04:02:16;20.10;63.40
43651;DHT22;29247;50.944;5.382;2024-02-04T04:04:41;20.10;63.40
43651;DHT22;29247;50.944;5.382;2024-02-04T04:07:08;20.10;63.40
43651;DHT22;29247;50.944;5.382;2024-02-04T04:09:36;20.10;63.60
43651;DHT22;29247;50.944;5.382;2024-02-04T04:12:02;20.10;63.60
43651;DHT22;29247;50.944;5.382;2024-02-04T04:14:27;20.10;63.50
43651;DHT22;29247;50.944;5.382;2024-02-04T04:16:55;20.10;64.30
43651;DHT22;29247;50.944;5.382;2024-02-04T04:19:21;20.10;63.70
43651;DHT22;29247;50.944;5.382;2024-02-04T04:21:46;20.10;63.70
43651;DHT22;29247;50.944;5.382;2024-02-04T04:24:12;20.10;63.70
43651;DHT22;29247;50.944;5.382;2024-02-04T04:26:40;20.00;63.70
43651;DHT22;29247;50.944;5.382;2024-02-04T04:29:06;20.00;63.70
43651;DHT22;29247;50.944;5.382;2024-02-04T04:31:31;20.00;63.70
43651;DHT22;29247;50.944;5.382;2024-02-04T04:33:57;20.00;63.70
43651;DHT22;29247;50.944;5.382;2024-02-04T04:36:25;20.00;63.70
43651;DHT22;29247;50.944;5.382;2024-02-04T04:38:50;20.00;63.80
43651;DHT22;29247;50.944;5.382;2024-02-04T04:41:16;20.00;63.80
43651;DHT22;29247;50.944;5.382;2024-02-04T04:43:42;20.00;63.80
43651;DHT22;29247;50.944;5.382;2024-02-04T04:46:08;20.00;63.90
43651;DHT22;29247;50.944;5.382;2024-02-04T04:48:33;20.00;63.90
43651;DHT22;29247;50.944;5.382;2024-02-04T04:50:59;20.00;64.00
43651;DHT22;29247;50.944;5.382;2024-02-04T04:53:24;20.00;64.00
43651;DHT22;29247;50.944;5.382;2024-02-04T04:55:50;19.90;64.00
43651;DHT22;29247;50.944;5.382;2024-02-04T04:58:18;19.90;64.00
43651;DHT22;29247;50.944;5.382;2024-02-04T05:00:44;20.00;64.10
43651;DHT22;29247;50.944;5.382;2024-02-04T05:03:09;20.00;64.10
43651;DHT22;29247;50.944;5.382;2024-02-04T05:05:35;19.90;64.10
43651;DHT22;29247;50.944;5.382;2024-02-04T05:08:00;19.90;64.10
43651;DHT22;29247;50.944;5.382;2024-02-04T05:10:26;19.90;64.10
43651;DHT22;29247;50.944;5.382;2024-02-04T05:12:52;19.90;64.10
43651;DHT22;29247;50.944;5.382;2024-02-04T05:15:17;19.90;64.20
43651;DHT22;29247;50.944;5.382;2024-02-04T05:17:43;19.90;64.30
43651;DHT22;29247;50.944;5.382;2024-02-04T05:20:09;19.90;64.30
43651;DHT22;29247;50.944;5.382;2024-02-04T05:22:35;19.90;64.30
43651;DHT22;29247;50.944;5.382;2024-02-04T05:25:00;19.90;64.40
43651;DHT22;29247;50.944;5.382;2024-02-04T05:27:26;19.90;64.40
43651;DHT22;29247;50.944;5.382;2024-02-04T05:29:52;19.90;64.40
43651;DHT22;29247;50.944;5.382;2024-02-04T05:32:17;19.90;64.40
43651;DHT22;29247;50.944;5.382;2024-02-04T05:34:43;19.90;64.50
43651;DHT22;29247;50.944;5.382;2024-02-04T05:37:08;20.00;64.50
43651;DHT22;29247;50.944;5.382;2024-02-04T05:39:34;20.00;64.50
43651;DHT22;29247;50.944;5.382;2024-02-04T05:42:00;20.00;64.40
43651;DHT22;29247;50.944;5.382;2024-02-04T05:44:25;20.00;64.30
43651;DHT22;29247;50.944;5.382;2024-02-04T05:46:51;20.10;64.40
43651;DHT22;29247;50.944;5.382;2024-02-04T05:49:19;20.10;64.30
43651;DHT22;29247;50.944;5.382;2024-02-04T05:51:44;20.10;64.30
43651;DHT22;29247;50.944;5.382;2024-02-04T05:54:10;20.20;64.30
43651;DHT22;29247;50.944;5.382;2024-02-04T05:56:36;20.20;64.30
43651;DHT22;29247;50.944;5.382;2024-02-04T05:59:02;20.20;64.20
43651;DHT22;29247;50.944;5.382;2024-02-04T06:01:27;20.20;64.20
43651;DHT22;29247;50.944;5.382;2024-02-04T06:03:53;20.30;64.10
43651;DHT22;29247;50.944;5.382;2024-02-04T06:06:19;20.30;64.10
43651;DHT22;29247;50.944;5.382;2024-02-04T06:08:46;20.30;64.00
43651;DHT22;29247;50.944;5.382;2024-02-04T06:11:12;20.30;63.90
43651;DHT22;29247;50.944;5.382;2024-02-04T06:13:42;20.30;63.90
43651;DHT22;29247;50.944;5.382;2024-02-04T06:16:08;20.40;63.90
43651;DHT22;29247;50.944;5.382;2024-02-04T06:18:35;20.40;63.80
43651;DHT22;29247;50.944;5.382;2024-02-04T06:21:03;20.40;63.80
43651;DHT22;29247;50.944;5.382;2024-02-04T06:23:29;20.40;64.50
43651;DHT22;29247;50.944;5.382;2024-02-04T06:25:54;20.50;63.80
43651;DHT22;29247;50.944;5.382;2024-02-04T06:28:20;20.50;63.70
43651;DHT22;29247;50.944;5.382;2024-02-04T06:30:46;20.50;63.60
43651;DHT22;29247;50.944;5.382;2024-02-04T06:33:11;20.50;63.60
43651;DHT22;29247;50.944;5.382;2024-02-04T06:35:37;20.50;63.60
43651;DHT22;29247;50.944;5.382;2024-02-04T06:38:05;20.60;63.60
43651;DHT22;29247;50.944;5.382;2024-02-04T06:40:30;20.60;63.50
43651;DHT22;29247;50.944;5.382;2024-02-04T06:42:56;20.60;63.50
43651;DHT22;29247;50.944;5.382;2024-02-04T06:45:22;20.60;63.40
43651;DHT22;29247;50.944;5.382;2024-02-04T06:47:47;20.70;63.50
43651;DHT22;29247;50.944;5.382;2024-02-04T06:50:13;20.70;63.50
43651;DHT22;29247;50.944;5.382;2024-02-04T06:52:46;20.70;63.50
43651;DHT22;29247;50.944;5.382;2024-02-04T06:55:14;20.70;63.60
43651;DHT22;29247;50.944;5.382;2024-02-04T06:57:39;20.70;63.60
43651;DHT22;29247;50.944;5.382;2024-02-04T07:00:06;20.70;63.70
43651;DHT22;29247;50.944;5.382;2024-02-04T07:02:34;20.70;63.80
43651;DHT22;29247;50.944;5.382;2024-02-04T07:04:59;20.70;63.90
43651;DHT22;29247;50.944;5.382;2024-02-04T07:07:25;20.80;64.10
43651;DHT22;29247;50.944;5.382;2024-02-04T07:09:51;20.80;64.30
43651;DHT22;29247;50.944;5.382;2024-02-04T07:12:16;20.80;64.30
43651;DHT22;29247;50.944;5.382;2024-02-04T07:14:44;20.80;64.30
43651;DHT22;29247;50.944;5.382;2024-02-04T07:17:10;20.80;64.10
43651;DHT22;29247;50.944;5.382;2024-02-04T07:19:37;20.90;64.10
43651;DHT22;29247;50.944;5.382;2024-02-04T07:22:03;20.90;64.20
43651;DHT22;29247;50.944;5.382;2024-02-04T07:24:29;20.90;64.20
43651;DHT22;29247;50.944;5.382;2024-02-04T07:26:55;20.90;64.10
43651;DHT22;29247;50.944;5.382;2024-02-04T07:29:21;21.00;64.00
43651;DHT22;29247;50.944;5.382;2024-02-04T07:31:47;21.00;63.90
43651;DHT22;29247;50.944;5.382;2024-02-04T07:34:15;21.00;63.90
43651;DHT22;29247;50.944;5.382;2024-02-04T07:36:40;21.00;63.80
43651;DHT22;29247;50.944;5.382;2024-02-04T07:39:06;21.00;63.80
43651;DHT22;29247;50.944;5.382;2024-02-04T07:41:32;21.00;63.60
43651;DHT22;29247;50.944;5.382;2024-02-04T07:43:58;21.10;63.80
43651;DHT22;29247;50.944;5.382;2024-02-04T07:46:24;21.10;63.70
43651;DHT22;29247;50.944;5.382;2024-02-04T07:48:49;21.10;63.80
43651;DHT22;29247;50.944;5.382;2024-02-04T07:51:15;21.10;63.90
43651;DHT22;29247;50.944;5.382;2024-02-04T07:53:41;21.10;63.90
43651;DHT22;29247;50.944;5.382;2024-02-04T07:56:08;21.20;63.90
43651;DHT22;29247;50.944;5.382;2024-02-04T07:58:36;21.20;64.00
43651;DHT22;29247;50.944;5.382;2024-02-04T08:01:04;21.20;63.90
43651;DHT22;29247;50.944;5.382;2024-02-04T08:03:29;21.20;64.00
43651;DHT22;29247;50.944;5.382;2024-02-04T08:05:55;21.20;64.00
43651;DHT22;29247;50.944;5.382;2024-02-04T08:08:27;21.20;64.00
43651;DHT22;29247;50.944;5.382;2024-02-04T08:10:53;21.30;64.10
43651;DHT22;29247;50.944;5.382;2024-02-04T08:13:18;21.20;64.00
43651;DHT22;29247;50.944;5.382;2024-02-04T08:15:44;21.20;64.00
43651;DHT22;29247;50.944;5.382;2024-02-04T08:18:10;21.20;64.00
43651;DHT22;29247;50.944;5.382;2024-02-04T08:20:38;21.20;64.00
43651;DHT22;29247;50.944;5.382;2024-02-04T08:23:04;21.20;64.00
43651;DHT22;29247;50.944;5.382;2024-02-04T08:25:29;21.30;64.00
43651;DHT22;29247;50.944;5.382;2024-02-04T08:27:58;21.30;64.00
43651;DHT22;29247;50.944;5.382;2024-02-04T08:30:26;21.20;64.00
43651;DHT22;29247;50.944;5.382;2024-02-04T08:32:52;21.30;64.00
43651;DHT22;29247;50.944;5.382;2024-02-04T08:35:17;21.30;63.90
43651;DHT22;29247;50.944;5.382;2024-02-04T08:37:43;21.30;63.80
43651;DHT22;29247;50.944;5.382;2024-02-04T08:40:09;21.30;63.80
43651;DHT22;29247;50.944;5.382;2024-02-04T08:42:38;21.30;63.60
43651;DHT22;29247;50.944;5.382;2024-02-04T08:45:04;21.30;63.60
43651;DHT22;29247;50.944;5.382;2024-02-04T08:47:33;21.30;63.50
43651;DHT22;29247;50.944;5.382;2024-02-04T08:49:59;21.30;63.50
43651;DHT22;29247;50.944;5.382;2024-02-04T08:52:24;21.30;63.50
43651;DHT22;29247;50.944;5.382;2024-02-04T08:54:50;21.30;63.50
43651;DHT22;29247;50.944;5.382;2024-02-04T08:57:15;21.30;63.50
43651;DHT22;29247;50.944;5.382;2024-02-04T08:59:42;21.30;63.50
43651;DHT22;29247;50.944;5.382;2024-02-04T09:02:07;21.30;63.50
43651;DHT22;29247;50.944;5.382;2024-02-04T09:04:33;21.30;63.50
43651;DHT22;29247;50.944;5.382;2024-02-04T09:07:08;21.30;63.50
43651;DHT22;29247;50.944;5.382;2024-02-04T09:09:36;21.20;63.50
43651;DHT22;29247;50.944;5.382;2024-02-04T09:12:02;21.30;63.50
43651;DHT22;29247;50.944;5.382;2024-02-04T09:14:28;21.20;63.40
43651;DHT22;29247;50.944;5.382;2024-02-04T09:16:54;21.20;63.40
43651;DHT22;29247;50.944;5.382;2024-02-04T09:19:19;21.20;63.50
43651;DHT22;29247;50.944;5.382;2024-02-04T09:21:49;21.20;63.50
43651;DHT22;29247;50.944;5.382;2024-02-04T09:24:15;21.20;63.50
43651;DHT22;29247;50.944;5.382;2024-02-04T09:26:41;21.20;63.60
43651;DHT22;29247;50.944;5.382;2024-02-04T09:29:06;21.20;64.00
43651;DHT22;29247;50.944;5.382;2024-02-04T09:31:32;21.10;63.60
43651;DHT22;29247;50.944;5.382;2024-02-04T09:33:58;21.10;63.60
43651;DHT22;29247;50.944;5.382;2024-02-04T09:36:23;21.20;63.70
43651;DHT22;29247;50.944;5.382;2024-02-04T09:38:51;21.10;63.60
43651;DHT22;29247;50.944;5.382;2024-02-04T09:41:17;21.10;63.70
43651;DHT22;29247;50.944;5.382;2024-02-04T09:43:45;21.10;63.70
43651;DHT22;29247;50.944;5.382;2024-02-04T09:46:11;21.10;63.70
43651;DHT22;29247;50.944;5.382;2024-02-04T09:48:38;21.10;63.70
43651;DHT22;29247;50.944;5.382;2024-02-04T09:51:06;21.10;63.70
43651;DHT22;29247;50.944;5.382;2024-02-04T09:53:33;21.10;63.80
43651;DHT22;29247;50.944;5.382;2024-02-04T09:56:02;21.10;63.70
43651;DHT22;29247;50.944;5.382;2024-02-04T09:58:28;21.10;63.80
43651;DHT22;29247;50.944;5.382;2024-02-04T10:00:54;21.10;63.80
43651;DHT22;29247;50.944;5.382;2024-02-04T10:03:19;21.10;63.70
43651;DHT22;29247;50.944;5.382;2024-02-04T10:05:46;21.00;63.80
43651;DHT22;29247;50.944;5.382;2024-02-04T10:08:14;21.00;63.70
43651;DHT22;29247;50.944;5.382;2024-02-04T10:10:40;21.00;63.70
43651;DHT22;29247;50.944;5.382;2024-02-04T10:13:10;21.00;63.70
43651;DHT22;29247;50.944;5.382;2024-02-04T10:15:36;21.00;63.80
43651;DHT22;29247;50.944;5.382;2024-02-04T10:18:08;21.00;63.80
43651;DHT22;29247;50.944;5.382;2024-02-04T10:20:36;21.00;63.80
43651;DHT22;29247;50.944;5.382;2024-02-04T10:23:02;21.00;63.90
43651;DHT22;29247;50.944;5.382;2024-02-04T10:25:30;20.90;63.80
43651;DHT22;29247;50.944;5.382;2024-02-04T10:27:57;21.00;64.00
43651;DHT22;29247;50.944;5.382;2024-02-04T10:30:23;21.00;64.00
43651;DHT22;29247;50.944;5.382;2024-02-04T10:32:53;20.90;64.00
43651;DHT22;29247;50.944;5.382;2024-02-04T10:35:25;21.00;64.10
43651;DHT22;29247;50.944;5.382;2024-02-04T10:37:53;21.00;64.20
43651;DHT22;29247;50.944;5.382;2024-02-04T10:40:19;21.00;64.30
43651;DHT22;29247;50.944;5.382;2024-02-04T10:45:25;21.00;64.60
43651;DHT22;29247;50.944;5.382;2024-02-04T10:47:56;21.00;64.60
43651;DHT22;29247;50.944;5.382;2024-02-04T10:50:24;21.00;64.60
43651;DHT22;29247;50.944;5.382;2024-02-04T10:52:51;21.10;64.70
43651;DHT22;29247;50.944;5.382;2024-02-04T10:55:26;21.10;64.70
43651;DHT22;29247;50.944;5.382;2024-02-04T10:57:53;21.10;64.60
43651;DHT22;29247;50.944;5.382;2024-02-04T11:00:19;21.10;64.60
43651;DHT22;29247;50.944;5.382;2024-02-04T11:02:46;21.20;65.40
43651;DHT22;29247;50.944;5.382;2024-02-04T11:05:15;21.20;64.60
43651;DHT22;29247;50.944;5.382;2024-02-04T11:07:43;21.20;64.50
43651;DHT22;29247;50.944;5.382;2024-02-04T11:10:10;21.30;64.40
43651;DHT22;29247;50.944;5.382;2024-02-04T11:12:37;21.30;64.30
43651;DHT22;29247;50.944;5.382;2024-02-04T11:15:05;21.30;64.20
43651;DHT22;29247;50.944;5.382;2024-02-04T11:21:01;21.40;64.00
43651;DHT22;29247;50.944;5.382;2024-02-04T11:26:13;21.40;63.90
43651;DHT22;29247;50.944;5.382;2024-02-04T11:28:42;21.50;63.90
43651;DHT22;29247;50.944;5.382;2024-02-04T11:31:14;21.50;64.00
43651;DHT22;29247;50.944;5.382;2024-02-04T11:33:41;21.50;64.00
43651;DHT22;29247;50.944;5.382;2024-02-04T11:36:14;21.50;64.00
43651;DHT22;29247;50.944;5.382;2024-02-04T11:38:40;21.60;64.00
43651;DHT22;29247;50.944;5.382;2024-02-04T11:41:07;21.60;64.00
43651;DHT22;29247;50.944;5.382;2024-02-04T11:43:36;21.60;64.00
43651;DHT22;29247;50.944;5.382;2024-02-04T11:46:16;21.60;64.00
43651;DHT22;29247;50.944;5.382;2024-02-04T11:48:54;21.70;64.00
43651;DHT22;29247;50.944;5.382;2024-02-04T11:51:23;21.70;64.00
43651;DHT22;29247;50.944;5.382;2024-02-04T11:53:52;21.70;64.00
43651;DHT22;29247;50.944;5.382;2024-02-04T11:56:20;21.70;64.00
43651;DHT22;29247;50.944;5.382;2024-02-04T11:58:47;21.70;64.00
43651;DHT22;29247;50.944;5.382;2024-02-04T12:01:15;21.70;64.10
43651;DHT22;29247;50.944;5.382;2024-02-04T12:03:43;21.80;64.10
43651;DHT22;29247;50.944;5.382;2024-02-04T12:06:10;21.80;64.00
43651;DHT22;29247;50.944;5.382;2024-02-04T12:08:41;21.80;64.00
43651;DHT22;29247;50.944;5.382;2024-02-04T12:11:07;21.80;64.00
43651;DHT22;29247;50.944;5.382;2024-02-04T12:13:34;21.80;64.00
43651;DHT22;29247;50.944;5.382;2024-02-04T12:16:05;21.90;64.00
43651;DHT22;29247;50.944;5.382;2024-02-04T12:18:32;21.90;64.00
43651;DHT22;29247;50.944;5.382;2024-02-04T12:20:57;21.90;64.00
43651;DHT22;29247;50.944;5.382;2024-02-04T12:23:23;21.90;64.00
43651;DHT22;29247;50.944;5.382;2024-02-04T12:25:49;21.90;63.90
43651;DHT22;29247;50.944;5.382;2024-02-04T12:28:15;21.90;63.90
43651;DHT22;29247;50.944;5.382;2024-02-04T12:30:41;21.90;63.90
43651;DHT22;29247;50.944;5.382;2024-02-04T12:33:18;21.90;63.90
43651;DHT22;29247;50.944;5.382;2024-02-04T12:35:43;21.90;63.90
43651;DHT22;29247;50.944;5.382;2024-02-04T12:38:16;21.90;63.90
43651;DHT22;29247;50.944;5.382;2024-02-04T12:40:45;21.90;63.90
43651;DHT22;29247;50.944;5.382;2024-02-04T12:43:11;21.90;64.60
43651;DHT22;29247;50.944;5.382;2024-02-04T12:45:37;21.90;63.90
43651;DHT22;29247;50.944;5.382;2024-02-04T12:48:03;21.90;63.90
43651;DHT22;29247;50.944;5.382;2024-02-04T12:50:29;21.90;63.90
43651;DHT22;29247;50.944;5.382;2024-02-04T12:53:10;21.90;63.90
43651;DHT22;29247;50.944;5.382;2024-02-04T12:55:37;21.90;63.90
43651;DHT22;29247;50.944;5.382;2024-02-04T12:58:09;21.90;63.90
43651;DHT22;29247;50.944;5.382;2024-02-04T13:00:42;21.90;63.90
43651;DHT22;29247;50.944;5.382;2024-02-04T13:03:08;21.80;63.80
43651;DHT22;29247;50.944;5.382;2024-02-04T13:05:39;21.80;63.80
43651;DHT22;29247;50.944;5.382;2024-02-04T13:08:07;21.80;63.80
43651;DHT22;29247;50.944;5.382;2024-02-04T13:10:36;21.80;63.90
43651;DHT22;29247;50.944;5.382;2024-02-04T13:13:07;21.80;63.50
43651;DHT22;29247;50.944;5.382;2024-02-04T13:15:39;21.80;63.50
43651;DHT22;29247;50.944;5.382;2024-02-04T13:18:07;21.80;63.60
43651;DHT22;29247;50.944;5.382;2024-02-04T13:20:33;21.70;63.70
43651;DHT22;29247;50.944;5.382;2024-02-04T13:22:59;21.70;63.70
43651;DHT22;29247;50.944;5.382;2024-02-04T13:25:25;21.70;63.70
43651;DHT22;29247;50.944;5.382;2024-02-04T13:27:53;21.70;63.70
43651;DHT22;29247;50.944;5.382;2024-02-04T13:30:22;21.70;63.70
43651;DHT22;29247;50.944;5.382;2024-02-04T13:32:48;21.70;63.70
43651;DHT22;29247;50.944;5.382;2024-02-04T13:35:14;21.70;63.70
43651;DHT22;29247;50.944;5.382;2024-02-04T13:37:43;21.70;63.70
43651;DHT22;29247;50.944;5.382;2024-02-04T13:40:16;21.70;63.70
43651;DHT22;29247;50.944;5.382;2024-02-04T13:42:43;21.60;63.70
43651;DHT22;29247;50.944;5.382;2024-02-04T13:45:09;21.60;63.70
43651;DHT22;29247;50.944;5.382;2024-02-04T13:47:41;21.60;63.70
43651;DHT22;29247;50.944;5.382;2024-02-04T13:50:08;21.60;63.70
43651;DHT22;29247;50.944;5.382;2024-02-04T13:52:38;21.60;63.70
43651;DHT22;29247;50.944;5.382;2024-02-04T13:55:04;21.60;63.70
43651;DHT22;29247;50.944;5.382;2024-02-04T13:57:33;21.60;63.70
43651;DHT22;29247;50.944;5.382;2024-02-04T14:00:02;21.60;63.70
43651;DHT22;29247;50.944;5.382;2024-02-04T14:02:33;21.50;63.60
43651;DHT22;29247;50.944;5.382;2024-02-04T14:04:59;21.60;63.70
43651;DHT22;29247;50.944;5.382;2024-02-04T14:07:25;21.50;63.60
43651;DHT22;29247;50.944;5.382;2024-02-04T14:09:52;21.50;63.60
43651;DHT22;29247;50.944;5.382;2024-02-04T14:12:17;21.50;63.70
43651;DHT22;29247;50.944;5.382;2024-02-04T14:14:45;21.50;63.70
43651;DHT22;29247;50.944;5.382;2024-02-04T14:17:11;21.50;63.60
43651;DHT22;29247;50.944;5.382;2024-02-04T14:19:37;21.50;63.60
43651;DHT22;29247;50.944;5.382;2024-02-04T14:22:05;21.50;63.60
43651;DHT22;29247;50.944;5.382;2024-02-04T14:24:30;21.50;63.60
43651;DHT22;29247;50.944;5.382;2024-02-04T14:26:58;21.50;63.70
43651;DHT22;29247;50.944;5.382;2024-02-04T14:29:25;21.50;63.50
43651;DHT22;29247;50.944;5.382;2024-02-04T14:31:51;21.40;63.40
43651;DHT22;29247;50.944;5.382;2024-02-04T14:34:17;21.50;63.50
43651;DHT22;29247;50.944;5.382;2024-02-04T14:36:43;21.40;63.40
43651;DHT22;29247;50.944;5.382;2024-02-04T14:39:16;21.40;63.40
43651;DHT22;29247;50.944;5.382;2024-02-04T14:41:42;21.40;63.40
43651;DHT22;29247;50.944;5.382;2024-02-04T14:44:07;21.40;63.40
43651;DHT22;29247;50.944;5.382;2024-02-04T14:46:36;21.40;63.30
43651;DHT22;29247;50.944;5.382;2024-02-04T14:49:03;21.40;63.30
43651;DHT22;29247;50.944;5.382;2024-02-04T14:51:31;21.40;63.40
43651;DHT22;29247;50.944;5.382;2024-02-04T14:53:57;21.40;63.40
43651;DHT22;29247;50.944;5.382;2024-02-04T14:56:23;21.40;63.50
43651;DHT22;29247;50.944;5.382;2024-02-04T14:58:50;21.40;63.50
43651;DHT22;29247;50.944;5.382;2024-02-04T15:01:17;21.40;63.60
43651;DHT22;29247;50.944;5.382;2024-02-04T15:03:43;21.40;63.60
43651;DHT22;29247;50.944;5.382;2024-02-04T15:06:09;21.40;63.60
43651;DHT22;29247;50.944;5.382;2024-02-04T15:08:34;21.50;63.70
43651;DHT22;29247;50.944;5.382;2024-02-04T15:11:00;21.50;63.60
43651;DHT22;29247;50.944;5.382;2024-02-04T15:13:26;21.50;63.50
43651;DHT22;29247;50.944;5.382;2024-02-04T15:15:54;21.50;63.50
43651;DHT22;29247;50.944;5.382;2024-02-04T15:18:22;21.60;63.40
43651;DHT22;29247;50.944;5.382;2024-02-04T15:20:48;21.60;63.40
43651;DHT22;29247;50.944;5.382;2024-02-04T15:23:16;21.60;63.30
43651;DHT22;29247;50.944;5.382;2024-02-04T15:25:42;21.70;64.00
43651;DHT22;29247;50.944;5.382;2024-02-04T15:28:12;21.70;63.10
43651;DHT22;29247;50.944;5.382;2024-02-04T15:30:41;21.70;63.10
43651;DHT22;29247;50.944;5.382;2024-02-04T15:33:07;21.80;63.00
43651;DHT22;29247;50.944;5.382;2024-02-04T15:35:33;21.80;63.00
43651;DHT22;29247;50.944;5.382;2024-02-04T15:38:01;21.80;62.80
43651;DHT22;29247;50.944;5.382;2024-02-04T15:40:28;21.80;62.80